sensor_id;sensor_type;location;lat;lon;timestamp;noise_LAeq;noise_LA_min;noise_LA_max;noise_LA01;noise_LA95
60872;Laerm;46714;50.118;14.462;2024-03-22T00:01:05;65.15;53.13;73.01;;
60872;Laerm;46714;50.118;14.462;2024-03-22T00:03:30;66.62;53.24;74.46;;
60872;Laerm;46714;50.118;14.462;2024-03-22T00:05:56;65.38;43.09;75.80;;
60872;Laerm;46714;50.118;14.462;2024-03-22T00:08:22;67.38;54.38;74.01;;
60872;Laerm;46714;50.118;14.462;2024-03-22T00:10:47;67.37;51.10;78.78;;
60872;Laerm;46714;50.118;14.462;2024-03-22T00:13:13;67.28;51.46;77.79;;
60872;Laerm;46714;50.118;14.462;2024-03-22T00:15:38;68.56;57.48;76.90;;
60872;Laerm;46714;50.118;14.462;2024-03-22T00:18:04;64.73;50.62;73.08;;
60872;Laerm;46714;50.118;14.462;2024-03-22T00:20:29;67.93;55.35;76.85;;
60872;Laerm;46714;50.118;14.462;2024-03-22T00:22:55;66.30;47.40;73.97;;
60872;Laerm;46714;50.118;14.462;2024-03-22T00:25:20;66.07;50.97;73.35;;
60872;Laerm;46714;50.118;14.462;2024-03-22T00:27:45;67.06;57.41;75.79;;
60872;Laerm;46714;50.118;14.462;2024-03-22T00:30:11;66.54;49.23;77.05;;
60872;Laerm;46714;50.118;14.462;2024-03-22T00:32:36;64.85;46.35;73.92;;
60872;Laerm;46714;50.118;14.462;2024-03-22T00:35:01;67.36;47.84;76.82;;
60872;Laerm;46714;50.118;14.462;2024-03-22T00:37:27;66.03;51.30;74.62;;
60872;Laerm;46714;50.118;14.462;2024-03-22T00:39:53;67.09;43.72;76.78;;
60872;Laerm;46714;50.118;14.462;2024-03-22T00:42:18;66.95;49.56;75.64;;
60872;Laerm;46714;50.118;14.462;2024-03-22T00:44:43;69.53;51.15;79.10;;
60872;Laerm;46714;50.118;14.462;2024-03-22T00:47:09;66.22;53.42;78.34;;
60872;Laerm;46714;50.118;14.462;2024-03-22T00:49:34;65.95;46.45;74.30;;
60872;Laerm;46714;50.118;14.462;2024-03-22T00:51:59;66.44;49.85;77.14;;
60872;Laerm;46714;50.118;14.462;2024-03-22T00:54:25;65.37;45.51;75.48;;
60872;Laerm;46714;50.118;14.462;2024-03-22T00:56:50;65.32;49.45;74.59;;
60872;Laerm;46714;50.118;14.462;2024-03-22T00:59:15;63.41;45.89;72.93;;
60872;Laerm;46714;50.118;14.462;2024-03-22T01:01:41;66.82;49.50;75.23;;
60872;Laerm;46714;50.118;14.462;2024-03-22T01:04:07;64.59;50.80;75.06;;
60872;Laerm;46714;50.118;14.462;2024-03-22T01:06:34;66.89;56.31;73.55;;
60872;Laerm;46714;50.118;14.462;2024-03-22T01:08:59;66.62;49.34;79.18;;
60872;Laerm;46714;50.118;14.462;2024-03-22T01:11:25;64.76;47.91;75.56;;
60872;Laerm;46714;50.118;14.462;2024-03-22T01:13:50;66.91;50.45;75.33;;
60872;Laerm;46714;50.118;14.462;2024-03-22T01:16:15;64.19;47.76;73.33;;
60872;Laerm;46714;50.118;14.462;2024-03-22T01:18:41;65.80;50.40;76.09;;
60872;Laerm;46714;50.118;14.462;2024-03-22T01:21:07;66.85;53.55;76.78;;
60872;Laerm;46714;50.118;14.462;2024-03-22T01:23:32;64.21;52.25;73.04;;
60872;Laerm;46714;50.118;14.462;2024-03-22T01:25:57;65.54;54.84;74.05;;
60872;Laerm;46714;50.118;14.462;2024-03-22T01:28:23;65.82;50.08;74.21;;
60872;Laerm;46714;50.118;14.462;2024-03-22T01:30:48;65.71;48.10;76.07;;
60872;Laerm;46714;50.118;14.462;2024-03-22T01:33:13;65.75;50.33;74.35;;
60872;Laerm;46714;50.118;14.462;2024-03-22T01:35:39;64.61;47.95;76.65;;
60872;Laerm;46714;50.118;14.462;2024-03-22T01:38:04;65.54;47.52;74.51;;
60872;Laerm;46714;50.118;14.462;2024-03-22T01:40:30;66.30;50.32;80.15;;
60872;Laerm;46714;50.118;14.462;2024-03-22T01:42:56;65.01;54.10;73.02;;
60872;Laerm;46714;50.118;14.462;2024-03-22T01:45:22;64.21;45.17;74.32;;
60872;Laerm;46714;50.118;14.462;2024-03-22T01:47:50;64.53;46.15;75.77;;
60872;Laerm;46714;50.118;14.462;2024-03-22T01:50:16;66.47;42.09;77.93;;
60872;Laerm;46714;50.118;14.462;2024-03-22T01:52:41;65.63;54.14;75.93;;
60872;Laerm;46714;50.118;14.462;2024-03-22T01:55:07;64.87;43.58;75.85;;
60872;Laerm;46714;50.118;14.462;2024-03-22T01:57:33;63.90;49.20;77.01;;
60872;Laerm;46714;50.118;14.462;2024-03-22T01:59:59;66.91;48.31;77.92;;
60872;Laerm;46714;50.118;14.462;2024-03-22T02:02:25;67.14;50.75;80.71;;
60872;Laerm;46714;50.118;14.462;2024-03-22T02:04:51;62.42;42.59;74.12;;
60872;Laerm;46714;50.118;14.462;2024-03-22T02:07:16;64.84;43.09;77.02;;
60872;Laerm;46714;50.118;14.462;2024-03-22T02:09:42;63.48;43.68;73.76;;
60872;Laerm;46714;50.118;14.462;2024-03-22T02:12:08;67.57;50.32;76.94;;
60872;Laerm;46714;50.118;14.462;2024-03-22T02:14:35;66.08;47.88;73.87;;
60872;Laerm;46714;50.118;14.462;2024-03-22T02:17:00;63.99;47.36;71.94;;
60872;Laerm;46714;50.118;14.462;2024-03-22T02:19:26;65.39;51.05;74.87;;
60872;Laerm;46714;50.118;14.462;2024-03-22T02:21:51;65.86;49.21;75.34;;
60872;Laerm;46714;50.118;14.462;2024-03-22T02:24:16;66.46;45.57;74.14;;
60872;Laerm;46714;50.118;14.462;2024-03-22T02:26:42;65.12;45.63;75.03;;
60872;Laerm;46714;50.118;14.462;2024-03-22T02:29:07;62.79;43.24;74.29;;
60872;Laerm;46714;50.118;14.462;2024-03-22T02:31:32;62.81;42.53;75.07;;
60872;Laerm;46714;50.118;14.462;2024-03-22T02:33:58;66.97;48.58;75.99;;
60872;Laerm;46714;50.118;14.462;2024-03-22T02:36:23;64.94;44.43;74.18;;
60872;Laerm;46714;50.118;14.462;2024-03-22T02:38:49;65.41;44.62;77.21;;
60872;Laerm;46714;50.118;14.462;2024-03-22T02:41:14;67.08;53.91;78.09;;
60872;Laerm;46714;50.118;14.462;2024-03-22T02:43:39;64.89;52.05;73.60;;
60872;Laerm;46714;50.118;14.462;2024-03-22T02:46:05;67.42;47.52;81.39;;
60872;Laerm;46714;50.118;14.462;2024-03-22T02:48:30;64.54;43.72;75.18;;
60872;Laerm;46714;50.118;14.462;2024-03-22T02:50:57;63.82;48.07;77.55;;
60872;Laerm;46714;50.118;14.462;2024-03-22T02:53:22;66.22;49.92;77.96;;
60872;Laerm;46714;50.118;14.462;2024-03-22T02:55:48;65.69;46.20;75.38;;
60872;Laerm;46714;50.118;14.462;2024-03-22T02:58:13;65.72;49.85;75.55;;
60872;Laerm;46714;50.118;14.462;2024-03-22T03:00:39;66.01;50.69;77.48;;
60872;Laerm;46714;50.118;14.462;2024-03-22T03:03:05;66.08;49.82;77.93;;
60872;Laerm;46714;50.118;14.462;2024-03-22T03:05:30;66.75;47.70;76.41;;
60872;Laerm;46714;50.118;14.462;2024-03-22T03:07:56;65.15;47.67;72.84;;
60872;Laerm;46714;50.118;14.462;2024-03-22T03:10:21;63.86;48.29;73.88;;
60872;Laerm;46714;50.118;14.462;2024-03-22T03:12:46;66.46;49.38;78.57;;
60872;Laerm;46714;50.118;14.462;2024-03-22T03:15:12;64.88;46.91;73.64;;
60872;Laerm;46714;50.118;14.462;2024-03-22T03:17:37;65.56;53.60;73.82;;
60872;Laerm;46714;50.118;14.462;2024-03-22T03:20:03;66.45;52.63;76.38;;
60872;Laerm;46714;50.118;14.462;2024-03-22T03:22:33;67.01;53.26;76.65;;
60872;Laerm;46714;50.118;14.462;2024-03-22T03:24:59;73.40;48.66;96.90;;
60872;Laerm;46714;50.118;14.462;2024-03-22T03:27:24;64.30;47.79;72.99;;
60872;Laerm;46714;50.118;14.462;2024-03-22T03:29:49;66.34;47.02;75.53;;
60872;Laerm;46714;50.118;14.462;2024-03-22T03:32:15;66.82;50.52;78.84;;
60872;Laerm;46714;50.118;14.462;2024-03-22T03:34:40;67.83;56.60;75.84;;
60872;Laerm;46714;50.118;14.462;2024-03-22T03:37:05;68.88;59.57;79.05;;
60872;Laerm;46714;50.118;14.462;2024-03-22T03:39:31;67.30;49.29;74.78;;
60872;Laerm;46714;50.118;14.462;2024-03-22T03:41:56;66.32;50.56;73.98;;
60872;Laerm;46714;50.118;14.462;2024-03-22T03:44:21;68.26;58.65;78.23;;
60872;Laerm;46714;50.118;14.462;2024-03-22T03:46:47;66.88;55.41;78.31;;
60872;Laerm;46714;50.118;14.462;2024-03-22T03:49:12;68.15;59.47;74.31;;
60872;Laerm;46714;50.118;14.462;2024-03-22T03:51:38;69.48;60.85;76.68;;
60872;Laerm;46714;50.118;14.462;2024-03-22T03:54:03;68.98;57.56;76.21;;
60872;Laerm;46714;50.118;14.462;2024-03-22T03:56:29;69.35;59.23;78.13;;
60872;Laerm;46714;50.118;14.462;2024-03-22T03:58:54;65.43;50.06;75.05;;
60872;Laerm;46714;50.118;14.462;2024-03-22T04:01:20;68.13;57.70;76.27;;
60872;Laerm;46714;50.118;14.462;2024-03-22T04:03:45;67.33;51.63;78.31;;
60872;Laerm;46714;50.118;14.462;2024-03-22T04:06:10;69.97;59.35;83.24;;
60872;Laerm;46714;50.118;14.462;2024-03-22T04:08:36;69.09;62.10;76.31;;
60872;Laerm;46714;50.118;14.462;2024-03-22T04:11:01;69.55;51.59;76.61;;
60872;Laerm;46714;50.118;14.462;2024-03-22T04:13:28;70.00;59.38;79.85;;
60872;Laerm;46714;50.118;14.462;2024-03-22T04:15:53;69.29;57.95;77.47;;
60872;Laerm;46714;50.118;14.462;2024-03-22T04:18:19;70.89;61.21;81.16;;
60872;Laerm;46714;50.118;14.462;2024-03-22T04:20:58;70.17;58.01;79.17;;
60872;Laerm;46714;50.118;14.462;2024-03-22T04:23:25;71.36;63.82;81.54;;
60872;Laerm;46714;50.118;14.462;2024-03-22T04:25:58;69.94;61.83;75.92;;
60872;Laerm;46714;50.118;14.462;2024-03-22T04:28:27;70.17;61.50;76.42;;
60872;Laerm;46714;50.118;14.462;2024-03-22T04:31:05;70.67;57.44;77.45;;
60872;Laerm;46714;50.118;14.462;2024-03-22T04:33:32;72.09;65.60;78.30;;
60872;Laerm;46714;50.118;14.462;2024-03-22T04:35:58;70.68;62.87;77.91;;
60872;Laerm;46714;50.118;14.462;2024-03-22T04:38:24;70.85;63.55;76.97;;
60872;Laerm;46714;50.118;14.462;2024-03-22T04:40:50;73.13;66.45;81.26;;
60872;Laerm;46714;50.118;14.462;2024-03-22T04:43:16;71.35;65.13;76.41;;
60872;Laerm;46714;50.118;14.462;2024-03-22T04:45:45;72.41;66.80;77.92;;
60872;Laerm;46714;50.118;14.462;2024-03-22T04:48:13;72.10;65.56;77.22;;
60872;Laerm;46714;50.118;14.462;2024-03-22T04:50:39;73.09;66.24;80.24;;
60872;Laerm;46714;50.118;14.462;2024-03-22T04:53:04;73.38;66.77;81.97;;
60872;Laerm;46714;50.118;14.462;2024-03-22T04:55:30;72.46;66.21;78.17;;
60872;Laerm;46714;50.118;14.462;2024-03-22T04:57:56;72.55;67.69;78.51;;
60872;Laerm;46714;50.118;14.462;2024-03-22T05:00:21;72.56;65.23;81.19;;
60872;Laerm;46714;50.118;14.462;2024-03-22T05:02:47;72.66;65.45;78.00;;
60872;Laerm;46714;50.118;14.462;2024-03-22T05:05:13;72.84;66.66;81.11;;
60872;Laerm;46714;50.118;14.462;2024-03-22T05:07:38;73.78;67.42;79.37;;
60872;Laerm;46714;50.118;14.462;2024-03-22T05:10:04;73.15;66.79;79.75;;
60872;Laerm;46714;50.118;14.462;2024-03-22T05:12:30;73.29;66.43;80.18;;
60872;Laerm;46714;50.118;14.462;2024-03-22T05:14:56;74.03;67.59;81.70;;
60872;Laerm;46714;50.118;14.462;2024-03-22T05:17:21;73.63;67.52;80.27;;
60872;Laerm;46714;50.118;14.462;2024-03-22T05:19:46;73.51;66.55;81.50;;
60872;Laerm;46714;50.118;14.462;2024-03-22T05:22:12;73.54;67.08;79.98;;
60872;Laerm;46714;50.118;14.462;2024-03-22T05:24:37;73.29;66.39;78.72;;
60872;Laerm;46714;50.118;14.462;2024-03-22T05:27:03;77.29;67.76;101.11;;
60872;Laerm;46714;50.118;14.462;2024-03-22T05:29:28;73.63;66.69;81.38;;
60872;Laerm;46714;50.118;14.462;2024-03-22T05:31:54;72.68;62.14;79.59;;
60872;Laerm;46714;50.118;14.462;2024-03-22T05:34:19;73.10;66.10;79.90;;
60872;Laerm;46714;50.118;14.462;2024-03-22T05:36:48;73.75;67.01;80.61;;
60872;Laerm;46714;50.118;14.462;2024-03-22T05:39:13;72.82;66.65;79.06;;
60872;Laerm;46714;50.118;14.462;2024-03-22T05:41:39;75.58;68.61;92.66;;
60872;Laerm;46714;50.118;14.462;2024-03-22T05:44:05;80.21;67.44;102.22;;
60872;Laerm;46714;50.118;14.462;2024-03-22T05:46:30;73.65;67.40;77.33;;
60872;Laerm;46714;50.118;14.462;2024-03-22T05:48:57;73.63;67.09;78.74;;
60872;Laerm;46714;50.118;14.462;2024-03-22T05:51:24;73.50;66.82;79.55;;
60872;Laerm;46714;50.118;14.462;2024-03-22T05:53:49;72.26;64.79;78.49;;
60872;Laerm;46714;50.118;14.462;2024-03-22T05:56:14;73.28;65.90;79.58;;
60872;Laerm;46714;50.118;14.462;2024-03-22T05:58:40;74.55;68.72;82.05;;
60872;Laerm;46714;50.118;14.462;2024-03-22T06:01:05;73.89;66.11;82.46;;
60872;Laerm;46714;50.118;14.462;2024-03-22T06:03:31;74.15;65.89;81.38;;
60872;Laerm;46714;50.118;14.462;2024-03-22T06:05:56;73.41;64.16;82.99;;
60872;Laerm;46714;50.118;14.462;2024-03-22T06:08:25;73.52;68.95;77.46;;
60872;Laerm;46714;50.118;14.462;2024-03-22T06:10:54;75.00;66.97;91.81;;
60872;Laerm;46714;50.118;14.462;2024-03-22T06:13:19;73.34;65.54;80.02;;
60872;Laerm;46714;50.118;14.462;2024-03-22T06:15:48;73.34;66.16;78.43;;
60872;Laerm;46714;50.118;14.462;2024-03-22T06:18:14;73.99;66.94;81.02;;
60872;Laerm;46714;50.118;14.462;2024-03-22T06:20:39;74.31;68.86;82.14;;
60872;Laerm;46714;50.118;14.462;2024-03-22T06:23:05;73.29;64.84;77.22;;
60872;Laerm;46714;50.118;14.462;2024-03-22T06:25:30;73.42;64.35;80.74;;
60872;Laerm;46714;50.118;14.462;2024-03-22T06:27:55;74.39;69.92;83.56;;
60872;Laerm;46714;50.118;14.462;2024-03-22T06:30:21;73.94;66.76;81.68;;
60872;Laerm;46714;50.118;14.462;2024-03-22T06:32:46;74.11;62.72;82.64;;
60872;Laerm;46714;50.118;14.462;2024-03-22T06:35:12;73.45;66.87;79.73;;
60872;Laerm;46714;50.118;14.462;2024-03-22T06:37:39;73.56;69.02;79.75;;
60872;Laerm;46714;50.118;14.462;2024-03-22T06:40:06;73.98;69.46;79.72;;
60872;Laerm;46714;50.118;14.462;2024-03-22T06:42:31;73.56;66.42;81.38;;
60872;Laerm;46714;50.118;14.462;2024-03-22T06:44:57;78.84;65.34;100.89;;
60872;Laerm;46714;50.118;14.462;2024-03-22T06:47:22;73.04;65.23;78.65;;
60872;Laerm;46714;50.118;14.462;2024-03-22T06:49:48;73.18;64.93;79.60;;
60872;Laerm;46714;50.118;14.462;2024-03-22T06:52:14;72.79;64.22;79.51;;
60872;Laerm;46714;50.118;14.462;2024-03-22T06:54:40;73.30;65.90;81.90;;
60872;Laerm;46714;50.118;14.462;2024-03-22T06:57:06;73.62;66.16;79.78;;
60872;Laerm;46714;50.118;14.462;2024-03-22T06:59:31;72.79;65.60;76.61;;
60872;Laerm;46714;50.118;14.462;2024-03-22T07:01:57;73.54;62.43;82.06;;
60872;Laerm;46714;50.118;14.462;2024-03-22T07:04:22;76.76;61.63;93.32;;
60872;Laerm;46714;50.118;14.462;2024-03-22T07:06:47;73.88;67.13;84.29;;
60872;Laerm;46714;50.118;14.462;2024-03-22T07:09:13;73.90;65.18;82.29;;
60872;Laerm;46714;50.118;14.462;2024-03-22T07:11:39;72.96;65.44;79.27;;
60872;Laerm;46714;50.118;14.462;2024-03-22T07:14:04;75.48;67.57;91.57;;
60872;Laerm;46714;50.118;14.462;2024-03-22T07:16:29;82.00;67.10;104.19;;
60872;Laerm;46714;50.118;14.462;2024-03-22T07:18:55;73.86;65.63;83.22;;
60872;Laerm;46714;50.118;14.462;2024-03-22T07:21:20;73.25;61.55;80.81;;
60872;Laerm;46714;50.118;14.462;2024-03-22T07:23:46;73.69;63.69;80.45;;
60872;Laerm;46714;50.118;14.462;2024-03-22T07:26:11;73.75;69.05;80.95;;
60872;Laerm;46714;50.118;14.462;2024-03-22T07:28:36;72.91;66.50;76.45;;
60872;Laerm;46714;50.118;14.462;2024-03-22T07:31:02;72.91;67.20;80.26;;
60872;Laerm;46714;50.118;14.462;2024-03-22T07:33:27;73.51;67.80;79.89;;
60872;Laerm;46714;50.118;14.462;2024-03-22T07:35:53;75.01;65.28;88.70;;
60872;Laerm;46714;50.118;14.462;2024-03-22T07:38:20;72.87;65.66;79.08;;
60872;Laerm;46714;50.118;14.462;2024-03-22T07:40:45;73.24;66.20;79.18;;
60872;Laerm;46714;50.118;14.462;2024-03-22T07:43:10;72.93;67.06;82.45;;
60872;Laerm;46714;50.118;14.462;2024-03-22T07:45:37;76.68;67.54;95.42;;
60872;Laerm;46714;50.118;14.462;2024-03-22T07:48:02;73.55;64.97;81.16;;
60872;Laerm;46714;50.118;14.462;2024-03-22T07:50:28;73.52;68.82;79.36;;
60872;Laerm;46714;50.118;14.462;2024-03-22T07:52:53;73.01;66.73;77.94;;
60872;Laerm;46714;50.118;14.462;2024-03-22T07:55:19;73.40;66.54;85.45;;
60872;Laerm;46714;50.118;14.462;2024-03-22T07:57:45;72.98;65.13;79.08;;
60872;Laerm;46714;50.118;14.462;2024-03-22T08:00:11;78.29;68.31;97.42;;
60872;Laerm;46714;50.118;14.462;2024-03-22T08:02:36;73.63;66.37;80.54;;
60872;Laerm;46714;50.118;14.462;2024-03-22T08:05:02;73.54;69.98;77.33;;
60872;Laerm;46714;50.118;14.462;2024-03-22T08:07:27;73.97;62.65;81.46;;
60872;Laerm;46714;50.118;14.462;2024-03-22T08:09:53;73.64;67.49;79.45;;
60872;Laerm;46714;50.118;14.462;2024-03-22T08:12:20;73.24;65.88;77.14;;
60872;Laerm;46714;50.118;14.462;2024-03-22T08:14:46;74.11;68.47;82.00;;
60872;Laerm;46714;50.118;14.462;2024-03-22T08:17:11;74.10;67.20;80.46;;
60872;Laerm;46714;50.118;14.462;2024-03-22T08:19:37;73.53;67.34;79.28;;
60872;Laerm;46714;50.118;14.462;2024-03-22T08:22:03;73.40;65.67;78.99;;
60872;Laerm;46714;50.118;14.462;2024-03-22T08:24:29;74.57;68.83;81.45;;
60872;Laerm;46714;50.118;14.462;2024-03-22T08:26:54;74.88;68.87;87.49;;
60872;Laerm;46714;50.118;14.462;2024-03-22T08:29:21;74.38;70.13;78.73;;
60872;Laerm;46714;50.118;14.462;2024-03-22T08:31:46;74.26;68.10;80.01;;
60872;Laerm;46714;50.118;14.462;2024-03-22T08:34:11;73.80;68.64;79.75;;
60872;Laerm;46714;50.118;14.462;2024-03-22T08:36:37;74.14;67.38;79.32;;
60872;Laerm;46714;50.118;14.462;2024-03-22T08:39:02;73.98;70.37;78.36;;
60872;Laerm;46714;50.118;14.462;2024-03-22T08:41:28;73.99;68.73;78.85;;
60872;Laerm;46714;50.118;14.462;2024-03-22T08:43:53;74.50;69.35;83.53;;
60872;Laerm;46714;50.118;14.462;2024-03-22T08:46:19;74.33;69.94;78.65;;
60872;Laerm;46714;50.118;14.462;2024-03-22T08:48:46;73.94;67.60;78.36;;
60872;Laerm;46714;50.118;14.462;2024-03-22T08:51:12;74.25;70.26;77.80;;
60872;Laerm;46714;50.118;14.462;2024-03-22T08:53:37;78.95;67.95;101.66;;
60872;Laerm;46714;50.118;14.462;2024-03-22T08:56:03;74.04;65.41;84.18;;
60872;Laerm;46714;50.118;14.462;2024-03-22T08:58:28;74.16;65.88;79.66;;
60872;Laerm;46714;50.118;14.462;2024-03-22T09:00:54;73.70;68.74;79.61;;
60872;Laerm;46714;50.118;14.462;2024-03-22T09:03:20;73.48;67.12;79.92;;
60872;Laerm;46714;50.118;14.462;2024-03-22T09:05:46;73.93;67.38;78.66;;
60872;Laerm;46714;50.118;14.462;2024-03-22T09:08:12;73.74;66.50;78.42;;
60872;Laerm;46714;50.118;14.462;2024-03-22T09:10:37;74.07;69.52;79.60;;
60872;Laerm;46714;50.118;14.462;2024-03-22T09:13:02;73.81;67.13;77.95;;
60872;Laerm;46714;50.118;14.462;2024-03-22T09:15:28;73.99;69.02;77.72;;
60872;Laerm;46714;50.118;14.462;2024-03-22T09:17:53;73.78;68.54;76.91;;
60872;Laerm;46714;50.118;14.462;2024-03-22T09:20:19;73.49;67.90;78.19;;
60872;Laerm;46714;50.118;14.462;2024-03-22T09:22:44;74.34;70.35;78.52;;
60872;Laerm;46714;50.118;14.462;2024-03-22T09:25:09;78.97;69.58;97.87;;
60872;Laerm;46714;50.118;14.462;2024-03-22T09:27:35;74.18;70.67;78.18;;
60872;Laerm;46714;50.118;14.462;2024-03-22T09:30:00;74.02;69.62;78.14;;
60872;Laerm;46714;50.118;14.462;2024-03-22T09:32:26;74.41;71.17;77.60;;
60872;Laerm;46714;50.118;14.462;2024-03-22T09:34:52;73.07;67.89;79.72;;
60872;Laerm;46714;50.118;14.462;2024-03-22T09:37:17;73.77;69.51;82.36;;
60872;Laerm;46714;50.118;14.462;2024-03-22T09:39:43;74.44;68.94;81.72;;
60872;Laerm;46714;50.118;14.462;2024-03-22T09:42:13;76.28;68.72;96.26;;
60872;Laerm;46714;50.118;14.462;2024-03-22T09:44:47;75.38;68.60;93.88;;
60872;Laerm;46714;50.118;14.462;2024-03-22T09:47:14;73.50;69.36;77.54;;
60872;Laerm;46714;50.118;14.462;2024-03-22T09:49:40;73.96;69.18;79.35;;
60872;Laerm;46714;50.118;14.462;2024-03-22T09:52:06;72.86;68.38;77.96;;
60872;Laerm;46714;50.118;14.462;2024-03-22T09:54:32;75.15;70.41;82.12;;
60872;Laerm;46714;50.118;14.462;2024-03-22T09:56:59;74.64;68.07;84.78;;
60872;Laerm;46714;50.118;14.462;2024-03-22T09:59:25;76.63;68.68;101.07;;
60872;Laerm;46714;50.118;14.462;2024-03-22T10:01:51;74.79;70.58;91.83;;
60872;Laerm;46714;50.118;14.462;2024-03-22T10:04:18;74.07;69.96;78.70;;
60872;Laerm;46714;50.118;14.462;2024-03-22T10:06:46;75.20;69.18;85.66;;
60872;Laerm;46714;50.118;14.462;2024-03-22T10:09:12;73.88;67.65;77.47;;
60872;Laerm;46714;50.118;14.462;2024-03-22T10:11:38;74.29;68.17;84.79;;
60872;Laerm;46714;50.118;14.462;2024-03-22T10:14:03;74.06;68.78;79.60;;
60872;Laerm;46714;50.118;14.462;2024-03-22T10:16:34;74.17;69.13;78.45;;
60872;Laerm;46714;50.118;14.462;2024-03-22T10:19:00;73.69;67.36;85.49;;
60872;Laerm;46714;50.118;14.462;2024-03-22T10:21:25;73.93;68.67;81.77;;
60872;Laerm;46714;50.118;14.462;2024-03-22T10:23:53;74.20;69.90;81.53;;
60872;Laerm;46714;50.118;14.462;2024-03-22T10:26:18;74.19;69.42;79.35;;
60872;Laerm;46714;50.118;14.462;2024-03-22T10:28:45;74.70;70.73;79.47;;
60872;Laerm;46714;50.118;14.462;2024-03-22T10:31:12;75.10;70.28;88.33;;
60872;Laerm;46714;50.118;14.462;2024-03-22T10:33:38;73.36;66.88;78.01;;
60872;Laerm;46714;50.118;14.462;2024-03-22T10:36:04;74.05;70.36;80.94;;
60872;Laerm;46714;50.118;14.462;2024-03-22T10:38:30;73.60;68.18;80.73;;
60872;Laerm;46714;50.118;14.462;2024-03-22T10:40:57;73.67;68.63;77.85;;
60872;Laerm;46714;50.118;14.462;2024-03-22T10:43:22;73.67;69.52;77.47;;
60872;Laerm;46714;50.118;14.462;2024-03-22T10:45:48;74.49;69.24;85.46;;
60872;Laerm;46714;50.118;14.462;2024-03-22T10:48:17;75.12;70.38;86.54;;
60872;Laerm;46714;50.118;14.462;2024-03-22T10:50:44;76.64;69.10;90.44;;
60872;Laerm;46714;50.118;14.462;2024-03-22T10:53:18;78.26;69.53;98.85;;
60872;Laerm;46714;50.118;14.462;2024-03-22T10:55:47;74.61;70.73;85.40;;
60872;Laerm;46714;50.118;14.462;2024-03-22T10:58:15;74.39;68.36;78.27;;
60872;Laerm;46714;50.118;14.462;2024-03-22T11:00:42;74.82;68.01;95.74;;
60872;Laerm;46714;50.118;14.462;2024-03-22T11:03:13;74.26;70.07;77.84;;
60872;Laerm;46714;50.118;14.462;2024-03-22T11:05:49;74.22;67.32;83.33;;
60872;Laerm;46714;50.118;14.462;2024-03-22T11:08:24;74.80;70.40;82.13;;
60872;Laerm;46714;50.118;14.462;2024-03-22T11:10:49;75.07;67.93;93.11;;
60872;Laerm;46714;50.118;14.462;2024-03-22T11:13:16;75.12;69.72;93.82;;
60872;Laerm;46714;50.118;14.462;2024-03-22T11:15:42;74.29;70.34;79.68;;
60872;Laerm;46714;50.118;14.462;2024-03-22T11:18:07;74.81;70.04;82.43;;
60872;Laerm;46714;50.118;14.462;2024-03-22T11:20:36;73.24;65.96;82.03;;
60872;Laerm;46714;50.118;14.462;2024-03-22T11:23:03;73.96;69.91;79.27;;
60872;Laerm;46714;50.118;14.462;2024-03-22T11:25:31;76.59;69.30;96.28;;
60872;Laerm;46714;50.118;14.462;2024-03-22T11:27:57;74.50;70.88;82.59;;
60872;Laerm;46714;50.118;14.462;2024-03-22T11:30:27;77.44;69.22;99.77;;
60872;Laerm;46714;50.118;14.462;2024-03-22T11:32:53;75.41;70.12;86.77;;
60872;Laerm;46714;50.118;14.462;2024-03-22T11:35:19;74.24;69.75;79.40;;
60872;Laerm;46714;50.118;14.462;2024-03-22T11:37:44;74.21;68.38;79.41;;
60872;Laerm;46714;50.118;14.462;2024-03-22T11:40:10;74.21;65.98;84.43;;
60872;Laerm;46714;50.118;14.462;2024-03-22T11:42:38;76.08;70.04;93.12;;
60872;Laerm;46714;50.118;14.462;2024-03-22T11:45:05;73.62;69.46;82.82;;
60872;Laerm;46714;50.118;14.462;2024-03-22T11:47:33;73.84;69.62;80.58;;
60872;Laerm;46714;50.118;14.462;2024-03-22T11:49:59;72.44;67.97;84.03;;
60872;Laerm;46714;50.118;14.462;2024-03-22T11:52:30;73.13;69.35;87.80;;
60872;Laerm;46714;50.118;14.462;2024-03-22T11:54:56;73.17;67.56;77.24;;
60872;Laerm;46714;50.118;14.462;2024-03-22T11:57:22;73.06;67.39;78.65;;
60872;Laerm;46714;50.118;14.462;2024-03-22T11:59:48;74.10;68.79;80.10;;
60872;Laerm;46714;50.118;14.462;2024-03-22T12:02:14;74.14;70.68;78.85;;
60872;Laerm;46714;50.118;14.462;2024-03-22T12:04:50;77.56;70.16;96.92;;
60872;Laerm;46714;50.118;14.462;2024-03-22T12:07:16;74.97;70.76;82.16;;
60872;Laerm;46714;50.118;14.462;2024-03-22T12:09:42;73.80;69.60;79.12;;
60872;Laerm;46714;50.118;14.462;2024-03-22T12:12:09;73.91;68.45;80.12;;
60872;Laerm;46714;50.118;14.462;2024-03-22T12:14:35;75.19;71.34;81.87;;
60872;Laerm;46714;50.118;14.462;2024-03-22T12:17:04;74.28;70.19;87.85;;
60872;Laerm;46714;50.118;14.462;2024-03-22T12:19:30;74.39;70.86;77.99;;
60872;Laerm;46714;50.118;14.462;2024-03-22T12:21:55;74.12;70.63;76.97;;
60872;Laerm;46714;50.118;14.462;2024-03-22T12:24:22;74.28;70.38;83.19;;
60872;Laerm;46714;50.118;14.462;2024-03-22T12:26:47;74.30;70.86;77.42;;
60872;Laerm;46714;50.118;14.462;2024-03-22T12:29:14;73.08;67.61;78.24;;
60872;Laerm;46714;50.118;14.462;2024-03-22T12:31:40;72.57;65.20;76.19;;
60872;Laerm;46714;50.118;14.462;2024-03-22T12:34:05;72.68;65.94;78.61;;
60872;Laerm;46714;50.118;14.462;2024-03-22T12:36:30;73.02;66.79;84.12;;
60872;Laerm;46714;50.118;14.462;2024-03-22T12:38:56;73.26;68.73;76.91;;
60872;Laerm;46714;50.118;14.462;2024-03-22T12:41:21;73.21;69.24;79.68;;
60872;Laerm;46714;50.118;14.462;2024-03-22T12:43:46;76.38;68.04;94.34;;
60872;Laerm;46714;50.118;14.462;2024-03-22T12:46:12;72.78;67.80;77.01;;
60872;Laerm;46714;50.118;14.462;2024-03-22T12:48:37;73.36;69.45;81.08;;
60872;Laerm;46714;50.118;14.462;2024-03-22T12:51:03;74.01;68.52;85.58;;
60872;Laerm;46714;50.118;14.462;2024-03-22T12:53:28;73.48;69.09;78.76;;
60872;Laerm;46714;50.118;14.462;2024-03-22T12:55:54;73.05;66.96;77.65;;
60872;Laerm;46714;50.118;14.462;2024-03-22T12:58:19;73.34;68.72;79.77;;
60872;Laerm;46714;50.118;14.462;2024-03-22T13:00:44;73.31;68.24;80.44;;
60872;Laerm;46714;50.118;14.462;2024-03-22T13:03:10;73.07;66.98;78.32;;
60872;Laerm;46714;50.118;14.462;2024-03-22T13:05:40;72.48;67.32;78.51;;
60872;Laerm;46714;50.118;14.462;2024-03-22T13:08:05;73.17;68.16;80.61;;
60872;Laerm;46714;50.118;14.462;2024-03-22T13:10:31;73.34;69.90;79.97;;
60872;Laerm;46714;50.118;14.462;2024-03-22T13:12:56;73.51;66.94;80.57;;
60872;Laerm;46714;50.118;14.462;2024-03-22T13:15:22;72.69;66.81;76.43;;
60872;Laerm;46714;50.118;14.462;2024-03-22T13:17:48;72.97;69.17;78.71;;
60872;Laerm;46714;50.118;14.462;2024-03-22T13:20:13;73.55;67.03;81.77;;
60872;Laerm;46714;50.118;14.462;2024-03-22T13:22:40;73.08;68.48;84.45;;
60872;Laerm;46714;50.118;14.462;2024-03-22T13:25:06;73.03;64.13;77.11;;